Glen Daniel, WV (25844)

5:37 PM EST on February 12, 2016 (GMT -0500)
Fairdale | | Change Station
CLOSE
Current Station
Personal Weather Station
Location: Lester, WV
Elevation: 1938 ft
Nearby Weather Stations
Active Advisory: Wind Chill Advisory

Elev 1938 ft 37.74 °N, 81.35 °W | Updated 7 seconds ago

Overcast
Overcast
27.5 °F
Feels Like 28 °F
N
0.0
Wind Variable Wind from WSW
Gusts 0.0 mph

Today
High -- | Low -- °F
--% Chance of Precip.
Yesterday
High -- | Low -- °F
Precip. -- in
Pressure 30.07 in
Visibility 9.0 miles
Clouds Overcast 1500 ft
Windchill 28 °F
Dew Point 7 °F
Humidity 42%
Rainfall 0.00 in
Snow Depth Not available.
7:19 AM 6:00 PM
Waxing Crescent, 24% visible
METAR KBKW 122151Z AUTO 27010KT 9SM -SN OVC015 M04/M08 A2993 RMK AO2 SNB2057 SLP182 P0000 T10391078
Pressure 30.07 in
Visibility 9.0 miles
Clouds Overcast 1500 ft
Windchill 28 °F
Dew Point 7 °F
Humidity 42%
Rainfall 0.00 in
Snow Depth Not available.
7:19 AM 6:00 PM
Waxing Crescent, 24% visible
METAR KBKW 122151Z AUTO 27010KT 9SM -SN OVC015 M04/M08 A2993 RMK AO2 SNB2057 SLP182 P0000 T10391078

10-Day Weather Forecast

Almanac

Astronomy

Feb. 12, 2016 Rise Set
Actual Time
Civil Twilight
Nautical Twilight
Astronomical Twilight
Moon
Length of Visible Light
Length of Day
Tomorrow will be .
, % of the Moon is Illuminated

Today's Extremes

State Highs State Lows

Community

WunderPhotos

Upload Photos

1,892,422 photos uploaded!

WunderBlog® & News

Nearby

Air Quality

  Air Quality AQ Index Pollutant
Not available.

Snow Depth

Station Depth Elevation

Earthquake Activity

City Distance Mag. Time & Date
Minimum magnitude displayed is 2.5.

Coastal Water Temperatures

Place Temperature

Stations

Nearby Weather Stations

Station Location Temp. Windchill Dew Point Humidity Wind Precip. Elev Updated Type
                   

Watches & Warnings

Wind Chill Advisory
Issued: 3:22 PM EST Feb. 12, 2016 – National Weather Service

... Wind Chill Advisory remains in effect from midnight tonight to
9 am EST Sunday...

* hazard... very cold air and wind.

* Wind chill readings... 10 below to 20 below zero... except 20 to
30 below zero across the High Mountain terrain.

* Timing... late tonight into Sunday morning.

* Winds... northwest 15 to 25 mph... gusts 30 to 40 mph.

* Temperatures... from 5 below zero across high elevations to 10
above zero along some river valleys tonight.

* Impacts... frost bite and hypothermia are possible if
precautions are not taken.

Precautionary/preparedness actions...

A Wind Chill Advisory means that very cold air and strong winds
will combine to generate low wind chills. This will result in
frost bite and lead to hypothermia if precautions are not taken.
If you must venture outdoors... make sure you wear a hat and
gloves. Limit your exposure time outdoors.



Ktb